Buoy 13516

sailwx.info

Track history (hours):
 
Tides and Currents Weather Stations Pressure Air Temp Water Temp Dewpoint Dewpoint Depression Visibility Wind Speed Wind Dir Waves Ship Positions

Ao Chao Yang 13516

Last reported at 2017-Jul-25 09:56 UTC. Time now 2017-Jul-25 10:30 UTC.
Position N 27°08' W 051°40'.

Length 20 m.

Type: Fishing. MMSI: 412469022.

Water temperature 27.2 ° C

Date/timePositionNaut miles runAvg speedWind from/ knotsBaromVisibWave heightAir tempDewpointWater temp
2017-Jul-25 09:56N 27°08' W 051°40'0 0.0 27.2
2017-Jul-25 09:53N 27°08' W 051°40'1 3.0 27.2
2017-Jul-25 09:37N 27°07' W 051°39'0 0.0 27.2
2017-Jul-25 09:32N 27°07' W 051°39'0 0.0 27.2
2017-Jul-25 08:22N 27°07' W 051°39'1 9.6 27.2
2017-Jul-25 08:17N 27°08' W 051°38'0 0.0 27.2
2017-Jul-25 07:58N 27°08' W 051°38'1 0.4 27.2
2017-Jul-25 06:44N 27°08' W 051°38'0 0.0 27.2
2017-Jul-25 06:38N 27°08' W 051°38'216.1 27.2
2017-Jul-25 06:31N 27°10' W 051°37'0 0.0 27.2
2017-Jul-25 02:07N 27°10' W 051°37'0 0.0 27.4
2017-Jul-25 02:01N 27°10' W 051°37'1 1.6 27.4
2017-Jul-25 01:13N 27°11' W 051°37'0 0.0 27.4
2017-Jul-25 00:28N 27°11' W 051°37'1 4.0 27.4
2017-Jul-25 00:20N 27°11' W 051°37'0 0.0 27.4
2017-Jul-24 23:38N 27°11' W 051°37'0 0.0 27.4
2017-Jul-24 23:34N 27°11' W 051°37'0 0.0 27.4
2017-Jul-24 23:10N 27°11' W 051°37'0 0.0 27.4
2017-Jul-24 23:04N 27°11' W 051°37'1 1.5 27.4
2017-Jul-24 22:43N 27°11' W 051°37'116.0 27.5
2017-Jul-24 22:41N 27°11' W 051°37'0 0.0 27.6
2017-Jul-24 22:28N 27°11' W 051°37'0 0.0 27.6
2017-Jul-24 21:40N 27°11' W 051°37'1 3.0 27.6
2017-Jul-24 21:28N 27°11' W 051°37'0 0.0 27.6
2017-Jul-24 21:25N 27°11' W 051°37'0 0.0 27.6
2017-Jul-24 20:49N 27°11' W 051°37'1 0.6 27.6
2017-Jul-24 19:52N 27°12' W 051°37'1 5.3 27.7
2017-Jul-24 19:46N 27°12' W 051°38'0 0.0 27.7
2017-Jul-24 18:13N 27°12' W 051°38'0 0.0 27.7
2017-Jul-24 18:10N 27°12' W 051°38'0 0.0 27.7
2017-Jul-24 18:07N 27°12' W 051°38'1 0.8 27.7
2017-Jul-24 16:31N 27°13' W 051°39'0 0.0 27.7
2017-Jul-24 14:47N 27°13' W 051°39'0 0.0 27.5
2017-Jul-24 14:04N 27°13' W 051°39'1 5.3 27.4
2017-Jul-24 13:58N 27°13' W 051°40'0 0.0 27.4
2017-Jul-24 13:10N 27°13' W 051°40'1 0.7 27.3
2017-Jul-24 12:26N 27°13' W 051°39'0 0.0 27.2
2017-Jul-24 12:22N 27°13' W 051°39'0 0.0 27.2
2017-Jul-24 12:19N 27°13' W 051°39'0 0.0 27.2
2017-Jul-24 12:10N 27°13' W 051°39'0 0.0 27.2
2017-Jul-24 11:49N 27°13' W 051°39'0 0.0 27.2
2017-Jul-24 11:43N 27°13' W 051°39'116.0 27.1
2017-Jul-24 11:41N 27°13' W 051°38'1 2.5 27.1
2017-Jul-24 11:28N 27°13' W 051°39'0 0.0 27.0
2017-Jul-24 10:37N 27°13' W 051°39'0 0.0 26.9
2017-Jul-24 10:10N 27°13' W 051°39'0 0.0 26.9
2017-Jul-24 10:05N 27°13' W 051°39'0 0.0 26.9
2017-Jul-24 09:58N 27°13' W 051°39'0 0.0
2017-Jul-24 08:55N 27°13' W 051°39'0 0.0 26.8
2017-Jul-24 08:28N 27°13' W 051°39'1 5.3 26.7
2017-Jul-24 08:22N 27°13' W 051°38'0 0.0 26.7
2017-Jul-24 06:53N 27°13' W 051°38'112.2 27.3
2017-Jul-24 06:47N 27°13' W 051°40'2 0.4 27.3
2017-Jul-24 02:23N 27°14' W 051°38'0 0.0 27.5
2017-Jul-24 01:40N 27°14' W 051°38'0 0.0 27.6
2017-Jul-24 01:35N 27°14' W 051°38'0 0.0 27.6
2017-Jul-24 00:43N 27°14' W 051°38'118.0 27.8
2017-Jul-24 00:41N 27°15' W 051°38'0 0.0 27.8
2017-Jul-23 23:58N 27°15' W 051°38'110.7 27.9
2017-Jul-23 23:55N 27°15' W 051°38'1 0.9 27.9
2017-Jul-23 23:20N 27°15' W 051°38'1 4.6 28.2
2017-Jul-23 23:13N 27°15' W 051°38'1 5.3 28.2
2017-Jul-23 23:07N 27°15' W 051°38'0 0.0 28.2
2017-Jul-23 22:58N 27°15' W 051°38'1 6.4 28.4
2017-Jul-23 22:53N 27°15' W 051°38'1 0.8 28.4
2017-Jul-23 22:05N 27°16' W 051°38'0 0.0 28.5
2017-Jul-23 21:41N 27°16' W 051°38'0 0.0 28.5
2017-Jul-23 21:35N 27°16' W 051°38'1 3.2 28.5
2017-Jul-23 21:20N 27°16' W 051°38'1 0.6 28.6
2017-Jul-23 20:04N 27°17' W 051°38'1 0.5 29.1
2017-Jul-23 18:26N 27°17' W 051°38'0 0.0 29.4
2017-Jul-23 18:20N 27°17' W 051°38'2 1.1 29.4
2017-Jul-23 16:43N 27°19' W 051°38'1 0.8 29.3
2017-Jul-23 15:10N 27°20' W 051°40'0 0.0 28.8
2017-Jul-23 14:25N 27°20' W 051°40'0 0.0 28.4
2017-Jul-23 14:22N 27°20' W 051°40'1 0.6 28.4
2017-Jul-23 13:32N 27°20' W 051°40'1 8.0 28.2
2017-Jul-23 13:28N 27°20' W 051°41'0 0.0
2017-Jul-23 12:40N 27°20' W 051°41'124.1 27.8
2017-Jul-23 12:38N 27°20' W 051°41'0 0.0 27.6
2017-Jul-23 11:58N 27°20' W 051°41'116.0 27.4
2017-Jul-23 11:56N 27°20' W 051°41'0 0.0 27.2
2017-Jul-23 11:52N 27°20' W 051°41'0 0.0 27.2
2017-Jul-23 11:47N 27°20' W 051°41'112.0 27.2
2017-Jul-23 11:43N 27°20' W 051°41'0 0.0
2017-Jul-23 10:58N 27°20' W 051°41'0 0.0 26.9
2017-Jul-23 10:38N 27°20' W 051°41'1 2.0 26.9
2017-Jul-23 10:22N 27°20' W 051°42'0 0.0 26.9
2017-Jul-23 10:13N 27°20' W 051°42'0 0.0 26.9
2017-Jul-23 10:10N 27°20' W 051°42'0 0.0 26.9
2017-Jul-23 09:22N 27°20' W 051°42'0 0.0 26.9
2017-Jul-23 09:16N 27°20' W 051°42'0 0.0 26.9
2017-Jul-23 08:58N 27°20' W 051°42'0 0.0 26.9
2017-Jul-23 08:55N 27°20' W 051°42'0 0.0 26.9
2017-Jul-23 08:44N 27°20' W 051°42'0 0.0 26.9
2017-Jul-23 08:41N 27°20' W 051°42'1 8.0 26.9
2017-Jul-23 08:37N 27°20' W 051°43'0 0.0 26.9
2017-Jul-23 07:19N 27°20' W 051°43'0 0.0 26.9
2017-Jul-23 07:07N 27°20' W 051°43'0 0.0 26.9
2017-Jul-23 06:58N 27°20' W 051°43'118.0 26.9
2017-Jul-23 06:56N 27°19' W 051°43'1 0.8 26.9
2017-Jul-23 05:20N 27°20' W 051°43'0 0.0 27.0
2017-Jul-23 01:58N 27°20' W 051°43'112.0 27.3
2017-Jul-23 01:55N 27°21' W 051°43'0 0.0 27.3
2017-Jul-23 01:08N 27°21' W 051°43'0 0.0 27.4
2017-Jul-23 01:02N 27°21' W 051°43'0 0.0 27.4
2017-Jul-23 00:23N 27°21' W 051°43'1 6.0 27.4
2017-Jul-23 00:17N 27°22' W 051°43'1 9.0 27.4
2017-Jul-23 00:13N 27°21' W 051°43'1 0.8 27.4
2017-Jul-22 23:28N 27°22' W 051°43'0 0.0 27.3
2017-Jul-22 23:26N 27°22' W 051°43'1 8.0 27.4
2017-Jul-22 23:22N 27°22' W 051°44'0 0.0 27.4
2017-Jul-22 22:28N 27°22' W 051°44'0 0.0 27.3
2017-Jul-22 21:53N 27°22' W 051°44'0 0.0 27.4
2017-Jul-22 21:52N 27°22' W 051°44'1 3.6 27.4
2017-Jul-22 21:43N 27°22' W 051°43'1 0.7 27.5
2017-Jul-22 20:55N 27°22' W 051°44'0 0.0 27.6
2017-Jul-22 20:50N 27°22' W 051°44'0 0.0 27.6
2017-Jul-22 20:13N 27°22' W 051°44'219.3 27.8
2017-Jul-22 20:08N 27°23' W 051°43'296.3 27.8
2017-Jul-22 20:07N 27°22' W 051°44'2 1.1 27.8
2017-Jul-22 18:37N 27°23' W 051°43'0 0.0 28.1
2017-Jul-22 18:34N 27°23' W 051°43'1 8.0 28.1
2017-Jul-22 18:28N 27°22' W 051°43'1 0.8 27.9
2017-Jul-22 16:55N 27°23' W 051°44'1 0.4 28.0
2017-Jul-22 14:41N 27°24' W 051°44'1 0.7 27.4
2017-Jul-22 13:53N 27°24' W 051°45'1 0.8 27.2
2017-Jul-22 13:08N 27°25' W 051°45'1 6.4 27.1
2017-Jul-22 12:58N 27°25' W 051°46'1 0.7 27.1
2017-Jul-22 12:11N 27°25' W 051°46'0 0.0 26.9
2017-Jul-22 12:08N 27°25' W 051°46'0 0.0 26.9
2017-Jul-22 11:25N 27°25' W 051°46'1 1.9 26.9
2017-Jul-22 11:08N 27°25' W 051°46'0 0.0 26.9
2017-Jul-22 10:32N 27°25' W 051°46'0 0.0 26.9
2017-Jul-22 10:29N 27°25' W 051°46'1 0.8 26.9
2017-Jul-22 09:46N 27°25' W 051°46'1 4.0 26.9
2017-Jul-22 09:38N 27°25' W 051°47'1 3.6 26.9
2017-Jul-22 09:28N 27°25' W 051°47'124.1
2017-Jul-22 09:26N 27°25' W 051°46'1 1.0 26.9
2017-Jul-22 08:53N 27°25' W 051°47'0 0.0 26.9
2017-Jul-22 07:52N 27°25' W 051°47'1 0.8 27.1
2017-Jul-22 07:13N 27°25' W 051°47'0 0.0
2017-Jul-22 07:11N 27°25' W 051°47'1 0.8 27.2
2017-Jul-22 05:35N 27°26' W 051°49'0 0.0 27.3
2017-Jul-22 05:32N 27°26' W 051°49'2 0.5 27.3
2017-Jul-22 02:19N 27°25' W 051°50'0 0.0 27.5
2017-Jul-22 01:29N 27°25' W 051°50'1 5.3 27.6
2017-Jul-22 01:23N 27°25' W 051°51'0 0.0 27.6
2017-Jul-22 00:43N 27°25' W 051°51'0 0.0
2017-Jul-22 00:41N 27°25' W 051°51'0 0.0 27.6
2017-Jul-22 00:37N 27°25' W 051°51'1 0.7 27.6
2017-Jul-21 23:50N 27°25' W 051°50'0 0.0 27.7
2017-Jul-21 23:43N 27°25' W 051°50'0 0.0 27.8
2017-Jul-21 23:40N 27°25' W 051°50'1 0.9 27.8
2017-Jul-21 22:58N 27°25' W 051°50'1 1.3 27.9
2017-Jul-21 22:22N 27°25' W 051°51'1 1.3 28.1
2017-Jul-21 21:58N 27°25' W 051°52'1 1.1 28.3
2017-Jul-21 21:25N 27°25' W 051°52'1 5.3 28.5
2017-Jul-21 21:16N 27°25' W 051°51'1 1.1 28.6
2017-Jul-21 20:43N 27°25' W 051°51'1 4.4 28.7
2017-Jul-21 20:32N 27°25' W 051°52'0 0.0 28.7
2017-Jul-21 20:26N 27°25' W 051°52'1 8.0 28.8
2017-Jul-21 20:22N 27°25' W 051°51'0 0.0 28.8
2017-Jul-21 19:43N 27°25' W 051°51'0 0.0 28.7
2017-Jul-21 18:49N 27°25' W 051°51'0 0.0 28.7
2017-Jul-21 18:46N 27°25' W 051°51'1 0.5 28.7
2017-Jul-21 17:07N 27°26' W 051°50'1 0.6 28.2
2017-Jul-21 15:05N 27°26' W 051°52'0 0.0 27.2
2017-Jul-21 14:13N 27°26' W 051°52'0 0.0 27.2
2017-Jul-21 14:08N 27°26' W 051°52'1 0.8 27.2
2017-Jul-21 13:28N 27°26' W 051°52'0 0.0 27.0
2017-Jul-21 13:25N 27°26' W 051°52'1 1.1 27.0
2017-Jul-21 12:28N 27°26' W 051°53'1 5.3 26.6
2017-Jul-21 12:22N 27°26' W 051°53'1 1.9 26.6
2017-Jul-21 11:49N 27°26' W 051°54'0 0.0 26.5
2017-Jul-21 10:46N 27°26' W 051°54'0 0.0 26.4
2017-Jul-21 10:40N 27°26' W 051°54'0 0.0 26.4
2017-Jul-21 10:11N 27°26' W 051°54'0 0.0 26.4
2017-Jul-21 10:07N 27°26' W 051°54'0 0.0 26.4
2017-Jul-21 10:01N 27°26' W 051°54'0 0.0 26.4
2017-Jul-21 09:55N 27°26' W 051°54'0 0.0 26.4
2017-Jul-21 09:05N 27°26' W 051°54'0 0.0 26.4
2017-Jul-21 08:58N 27°26' W 051°54'0 0.0 26.4
2017-Jul-21 08:25N 27°26' W 051°54'0 0.0 26.4
2017-Jul-21 08:23N 27°26' W 051°54'1 6.9 26.4
2017-Jul-21 08:16N 27°26' W 051°55'1 0.7 26.4
2017-Jul-21 07:25N 27°26' W 051°55'116.0 26.4
2017-Jul-21 07:22N 27°26' W 051°54'234.1 26.4
2017-Jul-21 07:19N 27°26' W 051°56'0 0.0 26.4
2017-Jul-21 05:46N 27°26' W 051°56'112.0 26.4
2017-Jul-21 05:43N 27°27' W 051°56'2 0.4 26.4
2017-Jul-21 01:50N 27°26' W 051°57'1 4.6 26.4
2017-Jul-21 01:43N 27°26' W 051°58'0 0.0 26.4
2017-Jul-21 01:05N 27°26' W 051°58'1 4.6 26.4
2017-Jul-21 00:58N 27°26' W 051°58'0 0.0 26.4
2017-Jul-21 00:11N 27°26' W 051°58'0 0.0 26.5
2017-Jul-21 00:07N 27°26' W 051°58'1 6.0 26.5
2017-Jul-21 00:01N 27°25' W 051°58'0 0.0 26.5
2017-Jul-20 23:53N 27°25' W 051°58'1 1.3 26.5
2017-Jul-20 23:25N 27°26' W 051°58'112.0 26.5
2017-Jul-20 23:22N 27°25' W 051°58'0 0.0 26.5
2017-Jul-20 22:53N 27°25' W 051°58'0 0.0 26.5
2017-Jul-20 22:47N 27°25' W 051°58'2 3.0 26.5
2017-Jul-20 22:13N 27°25' W 052°00'0 0.0
2017-Jul-20 22:11N 27°25' W 052°00'121.3 26.6
2017-Jul-20 22:08N 27°25' W 051°59'1 1.8 26.6
2017-Jul-20 21:50N 27°25' W 051°58'1 0.9 26.6
2017-Jul-20 21:13N 27°25' W 051°59'1 1.1 26.6
2017-Jul-20 20:28N 27°24' W 051°59'0 0.0
2017-Jul-20 20:08N 27°24' W 051°59'1 0.5 26.6
2017-Jul-20 18:58N 27°24' W 051°59'0 0.0 26.7
2017-Jul-20 18:53N 27°24' W 051°59'1 0.5 26.7
2017-Jul-20 17:19N 27°23' W 051°59'1 0.2 26.6
2017-Jul-20 14:31N 27°23' W 051°59'0 0.0 26.4
2017-Jul-20 13:49N 27°23' W 051°59'0 0.0 26.4
2017-Jul-20 13:43N 27°23' W 051°59'1 0.7 26.3
2017-Jul-20 12:56N 27°23' W 051°59'0 0.0 26.3
2017-Jul-20 12:53N 27°23' W 051°59'1 4.6 26.3
2017-Jul-20 12:46N 27°23' W 051°59'0 0.0 26.3
2017-Jul-20 12:35N 27°23' W 051°59'1 1.2 26.2
2017-Jul-20 12:08N 27°23' W 051°59'112.0 26.2
2017-Jul-20 12:04N 27°23' W 051°59'1 8.0 26.2
2017-Jul-20 11:58N 27°23' W 052°00'0 0.0 26.2
2017-Jul-20 10:58N 27°23' W 052°00'0 0.0 26.2
2017-Jul-20 10:53N 27°23' W 052°00'0 0.0 26.2
2017-Jul-20 10:50N 27°23' W 052°00'0 0.0 26.2
2017-Jul-20 10:46N 27°23' W 052°00'0 0.0 26.2
2017-Jul-20 10:37N 27°23' W 052°00'0 0.0 26.2
2017-Jul-20 10:32N 27°23' W 052°00'1 9.0 26.2
2017-Jul-20 10:28N 27°22' W 052°00'1 0.5 26.2
2017-Jul-20 09:16N 27°23' W 052°00'110.7 26.2
2017-Jul-20 09:13N 27°23' W 051°59'0 0.0 26.2
2017-Jul-20 09:10N 27°23' W 051°59'110.7 26.2
2017-Jul-20 09:07N 27°23' W 052°00'0 0.0 26.2
2017-Jul-20 08:56N 27°23' W 052°00'0 0.0 26.2
2017-Jul-20 08:50N 27°23' W 052°00'0 0.0 26.2
2017-Jul-20 08:47N 27°23' W 052°00'0 0.0 26.2
2017-Jul-20 07:37N 27°23' W 052°00'0 0.0 26.2
2017-Jul-20 07:32N 27°23' W 052°00'1 2.5 26.2
2017-Jul-20 07:13N 27°22' W 052°01'0 0.0 26.2
2017-Jul-20 05:55N 27°22' W 052°01'1 0.4 26.2
2017-Jul-20 02:10N 27°21' W 052°01'0 0.0 26.2
2017-Jul-20 02:04N 27°21' W 052°01'0 0.0 26.2
2017-Jul-20 01:23N 27°21' W 052°01'0 0.0 26.2
2017-Jul-20 01:19N 27°21' W 052°01'0 0.0 26.2
2017-Jul-20 00:31N 27°21' W 052°01'1 6.0 26.2
2017-Jul-20 00:25N 27°20' W 052°01'0 0.0 26.2
2017-Jul-20 00:05N 27°20' W 052°01'0 0.0 26.2
2017-Jul-19 23:43N 27°20' W 052°01'1 7.2
2017-Jul-19 23:38N 27°21' W 052°01'0 0.0 26.2
2017-Jul-19 23:19N 27°21' W 052°01'1 0.9 26.3
2017-Jul-19 22:28N 27°20' W 052°02'0 0.0 26.3
2017-Jul-19 22:23N 27°20' W 052°02'0 0.0 26.3
2017-Jul-19 22:20N 27°20' W 052°02'0 0.0 26.3
2017-Jul-19 22:13N 27°20' W 052°02'0 0.0 26.3
2017-Jul-19 22:05N 27°20' W 052°02'1 1.7 26.3
2017-Jul-19 21:46N 27°20' W 052°02'1 1.3 26.4
2017-Jul-19 20:46N 27°19' W 052°02'0 0.0 26.4
2017-Jul-19 20:31N 27°19' W 052°02'0 0.0 26.4
2017-Jul-19 20:02N 27°19' W 052°02'1 0.9 26.4
2017-Jul-19 19:10N 27°19' W 052°02'0 0.0 26.4
2017-Jul-19 19:04N 27°19' W 052°02'1 0.8 26.4
2017-Jul-19 17:31N 27°17' W 052°03'2 0.6 26.4
2017-Jul-19 14:53N 27°16' W 052°02'148.2 26.3
2017-Jul-19 14:52N 27°16' W 052°01'0 0.0 26.3
2017-Jul-19 14:08N 27°16' W 052°01'1 6.0 26.2
2017-Jul-19 14:02N 27°15' W 052°01'0 0.0 26.2
2017-Jul-19 13:13N 27°15' W 052°01'1 1.2 26.2
2017-Jul-19 12:46N 27°15' W 052°01'0 0.0 26.2
2017-Jul-19 12:40N 27°15' W 052°01'0 0.0 26.2
2017-Jul-19 12:29N 27°15' W 052°01'1 6.9 26.2
2017-Jul-19 12:22N 27°14' W 052°00'0 0.0 26.2
2017-Jul-19 11:31N 27°14' W 052°00'1 7.2 26.2
2017-Jul-19 11:26N 27°15' W 052°00'0 0.0
2017-Jul-19 11:08N 27°15' W 052°00'0 0.0 26.2
2017-Jul-19 11:04N 27°15' W 052°00'0 0.0 26.2
2017-Jul-19 11:01N 27°15' W 052°00'0 0.0 26.2
2017-Jul-19 10:58N 27°15' W 052°00'1 0.4 26.2
2017-Jul-19 09:20N 27°14' W 052°00'1 0.4 26.2
2017-Jul-19 07:49N 27°14' W 051°59'1 6.0 26.2
2017-Jul-19 07:41N 27°14' W 051°59'0 0.0 26.2
2017-Jul-19 06:07N 27°14' W 051°59'1 0.2 26.2
2017-Jul-19 02:25N 27°13' W 051°59'0 0.0 26.3
2017-Jul-19 01:43N 27°13' W 051°59'0 0.0 26.3
2017-Jul-19 01:37N 27°13' W 051°59'0 0.0 26.3
2017-Jul-19 00:50N 27°13' W 051°59'0 0.0 26.3
2017-Jul-19 00:43N 27°13' W 051°59'0 0.0 26.4
2017-Jul-18 23:56N 27°13' W 051°59'0 0.0 26.4
2017-Jul-18 23:50N 27°13' W 051°59'0 0.0 26.4
2017-Jul-18 23:10N 27°13' W 051°59'1 7.2 26.4
2017-Jul-18 23:05N 27°13' W 051°59'0 0.0 26.4
2017-Jul-18 22:38N 27°13' W 051°59'0 0.0 26.4
2017-Jul-18 22:37N 27°13' W 051°59'0 0.0 26.4
2017-Jul-18 22:32N 27°13' W 051°59'0 0.0 26.4
2017-Jul-18 22:13N 27°13' W 051°59'1 0.5 26.5
2017-Jul-18 20:58N 27°12' W 051°59'0 0.0 26.5
2017-Jul-18 20:35N 27°12' W 051°59'1 0.5 26.5
2017-Jul-18 19:20N 27°11' W 051°59'0 0.0 26.6
2017-Jul-18 19:16N 27°11' W 051°59'1 0.8 26.6
2017-Jul-18 17:41N 27°10' W 051°59'0 0.0 26.6
2017-Jul-18 17:38N 27°10' W 051°59'224.1 26.6
2017-Jul-18 17:32N 27°08' W 051°58'0 0.0 26.6
2017-Jul-18 15:11N 27°08' W 051°58'0 0.0 26.4
2017-Jul-18 14:28N 27°08' W 051°58'0 0.0 26.4
2017-Jul-18 14:25N 27°08' W 051°58'1 0.9 26.4
2017-Jul-18 13:34N 27°09' W 051°57'0 0.0 26.4
2017-Jul-18 12:53N 27°09' W 051°57'148.2
2017-Jul-18 12:52N 27°08' W 051°56'0 0.0 26.4
2017-Jul-18 12:44N 27°08' W 051°56'0 0.0 26.4
2017-Jul-18 11:52N 27°08' W 051°56'1 9.6 26.3
2017-Jul-18 11:47N 27°08' W 051°56'0 0.0 26.3
2017-Jul-18 11:23N 27°08' W 051°56'1 3.2 26.3
2017-Jul-18 11:13N 27°08' W 051°55'0 0.0 26.3
2017-Jul-18 09:56N 27°08' W 051°55'1 5.3 26.3
2017-Jul-18 09:50N 27°08' W 051°55'1 8.0 26.3
2017-Jul-18 09:46N 27°08' W 051°55'0 0.0 26.3
2017-Jul-18 09:40N 27°08' W 051°55'0 0.0 26.3
2017-Jul-18 09:35N 27°08' W 051°55'1 8.0 26.3
2017-Jul-18 09:29N 27°07' W 051°55'0 0.0 26.3
2017-Jul-18 08:13N 27°07' W 051°55'0 0.0 26.3
2017-Jul-18 07:58N 27°07' W 051°55'112.8 26.3
2017-Jul-18 07:53N 27°07' W 051°53'0 0.0 26.3
2017-Jul-18 06:23N 27°07' W 051°53'1 5.3 26.3
2017-Jul-18 06:17N 27°07' W 051°54'2 0.4 26.3
2017-Jul-18 02:01N 27°07' W 051°52'0 0.0 26.4
2017-Jul-18 01:56N 27°07' W 051°52'1 0.7 26.4
2017-Jul-18 01:11N 27°07' W 051°52'1 4.6 26.4
2017-Jul-18 01:04N 27°07' W 051°52'0 0.0 26.4
2017-Jul-18 00:26N 27°07' W 051°52'0 0.0 26.4
2017-Jul-18 00:19N 27°07' W 051°52'0 0.0 26.4
2017-Jul-17 23:32N 27°07' W 051°52'1 1.1 26.4
2017-Jul-17 22:58N 27°07' W 051°52'0 0.0 26.5
2017-Jul-17 22:52N 27°07' W 051°52'0 0.0 26.5
2017-Jul-17 22:47N 27°07' W 051°52'0 0.0 26.5
2017-Jul-17 22:40N 27°07' W 051°52'0 0.0 26.5
2017-Jul-17 21:23N 27°07' W 051°52'0 0.0 26.5
2017-Jul-17 21:10N 27°07' W 051°52'0 0.0 26.5
2017-Jul-17 21:07N 27°07' W 051°52'1 3.3 26.5
2017-Jul-17 20:56N 27°06' W 051°52'0 0.0 26.5
2017-Jul-17 19:43N 27°06' W 051°52'0 0.0 26.6
2017-Jul-17 19:28N 27°06' W 051°52'118.0 26.6
2017-Jul-17 19:26N 27°05' W 051°52'0 0.0 26.6
2017-Jul-17 17:53N 27°05' W 051°52'220.7 26.6
2017-Jul-17 17:46N 27°04' W 051°50'0 0.0 26.6
2017-Jul-17 14:47N 27°04' W 051°50'0 0.0 26.4
2017-Jul-17 13:55N 27°04' W 051°50'1 1.9 26.4
2017-Jul-17 13:13N 27°02' W 051°50'0 0.0 26.3
2017-Jul-17 13:05N 27°02' W 051°50'0 0.0 26.3
2017-Jul-17 12:10N 27°02' W 051°50'110.7 26.3
2017-Jul-17 12:07N 27°02' W 051°49'0 0.0 26.3
2017-Jul-17 11:47N 27°02' W 051°49'0 0.0 26.2
2017-Jul-17 11:29N 27°02' W 051°49'1 0.8 26.2
2017-Jul-17 10:28N 27°02' W 051°49'0 0.0 26.2
2017-Jul-17 10:25N 27°02' W 051°49'1 6.4 26.2
2017-Jul-17 10:20N 27°02' W 051°48'0 0.0 26.2
2017-Jul-17 10:01N 27°02' W 051°48'0 0.0 26.2
2017-Jul-17 09:49N 27°02' W 051°48'0 0.0 26.2
2017-Jul-17 09:46N 27°02' W 051°48'1 7.2 26.2
2017-Jul-17 09:41N 27°01' W 051°48'0 0.0 26.2
2017-Jul-17 08:49N 27°01' W 051°48'0 0.0 26.2
2017-Jul-17 08:44N 27°01' W 051°48'110.7 26.2
2017-Jul-17 08:41N 27°01' W 051°47'0 0.0 26.2
2017-Jul-17 08:13N 27°01' W 051°47'1 0.7 26.2
2017-Jul-17 06:35N 27°01' W 051°46'0 0.0 26.2
2017-Jul-17 06:28N 27°01' W 051°46'3 0.7 26.2
2017-Jul-17 01:32N 27°01' W 051°43'1 5.3 26.4
2017-Jul-17 01:26N 27°01' W 051°42'0 0.0 26.4
2017-Jul-16 23:53N 27°01' W 051°42'1 3.6 26.4
2017-Jul-16 23:43N 27°02' W 051°42'0 0.0
2017-Jul-16 23:13N 27°02' W 051°42'1 2.4 26.4
2017-Jul-16 22:58N 27°01' W 051°42'116.0 26.4
2017-Jul-16 22:56N 27°01' W 051°41'0 0.0 26.4
2017-Jul-16 21:49N 27°01' W 051°41'0 0.0 26.4
2017-Jul-16 21:38N 27°01' W 051°41'0 0.0 26.4
2017-Jul-16 21:20N 27°01' W 051°41'0 0.0 26.4
2017-Jul-16 21:13N 27°01' W 051°41'1 0.4 26.4
2017-Jul-16 19:43N 27°01' W 051°41'0 0.0 26.4
2017-Jul-16 19:38N 27°01' W 051°41'0 0.0 26.4
2017-Jul-16 18:05N 27°01' W 051°41'1 5.1 26.5
2017-Jul-16 17:58N 27°01' W 051°41'1 0.3 26.5
2017-Jul-16 14:13N 27°00' W 051°40'124.1 26.3
2017-Jul-16 14:11N 26°59' W 051°39'0 0.0 26.2
2017-Jul-16 12:35N 26°59' W 051°39'0 0.0 26.1
2017-Jul-16 11:41N 26°59' W 051°39'1 6.0 26.1
2017-Jul-16 11:35N 27°00' W 051°39'1 0.8 26.1
2017-Jul-16 10:56N 27°00' W 051°38'1 1.9 26.1
2017-Jul-16 10:37N 26°59' W 051°38'0 0.0 26.1
2017-Jul-16 10:34N 26°59' W 051°38'1 0.8 26.1
2017-Jul-16 09:53N 26°59' W 051°38'132.1 26.1
2017-Jul-16 09:52N 26°59' W 051°37'0 0.0 26.1
2017-Jul-16 09:20N 26°59' W 051°37'1 5.1 26.1
2017-Jul-16 09:13N 26°59' W 051°37'1 2.0 26.1
2017-Jul-16 08:55N 26°59' W 051°37'1 1.2 26.1
2017-Jul-16 08:25N 26°59' W 051°37'0 0.0 26.1
2017-Jul-16 08:17N 26°59' W 051°37'0 0.0 26.1
2017-Jul-16 07:38N 26°59' W 051°37'1 0.9 26.1
2017-Jul-16 06:46N 26°58' W 051°37'1 7.2 26.1
2017-Jul-16 06:41N 26°59' W 051°37'3 0.6 26.1
2017-Jul-16 01:53N 26°58' W 051°34'112.3 26.2
2017-Jul-16 01:47N 26°58' W 051°32'0 0.0 26.2
2017-Jul-16 00:13N 26°58' W 051°32'0 0.0 26.2
2017-Jul-16 00:11N 26°58' W 051°32'110.7 26.2
2017-Jul-16 00:05N 26°58' W 051°31'0 0.0 26.2
2017-Jul-15 23:44N 26°58' W 051°31'0 0.0 26.2
2017-Jul-15 23:13N 26°58' W 051°31'0 0.0 26.2
2017-Jul-15 23:08N 26°58' W 051°31'0 0.0 26.2
2017-Jul-15 22:13N 26°58' W 051°31'0 0.0 26.3
2017-Jul-15 22:10N 26°58' W 051°31'0 0.0 26.3
2017-Jul-15 22:07N 26°58' W 051°31'0 0.0 26.3
2017-Jul-15 21:32N 26°58' W 051°31'1 4.6 26.3
2017-Jul-15 21:25N 26°58' W 051°31'0 0.0 26.3
2017-Jul-15 20:28N 26°58' W 051°31'1 1.8 26.4
2017-Jul-15 19:53N 26°58' W 051°29'112.1 26.4
2017-Jul-15 19:49N 26°58' W 051°29'0 0.0 26.4
2017-Jul-15 18:13N 26°58' W 051°29'112.0 26.4
2017-Jul-15 18:10N 26°58' W 051°29'1 0.3 26.4
2017-Jul-15 14:38N 26°58' W 051°28'1 8.0 26.2
2017-Jul-15 14:34N 26°58' W 051°27'0 0.0 26.2
2017-Jul-15 12:58N 26°58' W 051°27'0 0.0 26.1
2017-Jul-15 12:56N 26°58' W 051°27'1 8.0 26.1
2017-Jul-15 12:50N 26°59' W 051°26'0 0.0 26.1
2017-Jul-15 11:52N 26°59' W 051°26'0 0.0 26.1
2017-Jul-15 11:49N 26°59' W 051°26'1 0.7 26.1
2017-Jul-15 10:58N 26°58' W 051°26'1 1.1 26.1
2017-Jul-15 10:13N 26°59' W 051°26'0 0.0 26.1
2017-Jul-15 10:08N 26°59' W 051°26'   26.1
Track history (hours):
 
Tides and Currents Weather Stations Pressure Air Temp Water Temp Dewpoint Dewpoint Depression Visibility Wind Speed Wind Dir Waves Ship Positions

Ao Chao Yang 13516

Last reported at 2017-Jul-25 09:56 UTC. Time now 2017-Jul-25 10:30 UTC.
Position N 27°08' W 051°40'.

Length 20 m.

Type: Fishing. MMSI: 412469022.

Water temperature 27.2 ° C

Date/timePositionNaut miles runAvg speedWind from/ knotsBaromVisibWave heightAir tempDewpointWater temp
2017-Jul-25 09:56N 27°08' W 051°40'0 0.0 27.2
2017-Jul-25 09:53N 27°08' W 051°40'1 3.0 27.2
2017-Jul-25 09:37N 27°07' W 051°39'0 0.0 27.2
2017-Jul-25 09:32N 27°07' W 051°39'0 0.0 27.2
2017-Jul-25 08:22N 27°07' W 051°39'1 9.6 27.2
2017-Jul-25 08:17N 27°08' W 051°38'0 0.0 27.2
2017-Jul-25 07:58N 27°08' W 051°38'1 0.4 27.2
2017-Jul-25 06:44N 27°08' W 051°38'0 0.0 27.2
2017-Jul-25 06:38N 27°08' W 051°38'216.1 27.2
2017-Jul-25 06:31N 27°10' W 051°37'0 0.0 27.2
2017-Jul-25 02:07N 27°10' W 051°37'0 0.0 27.4
2017-Jul-25 02:01N 27°10' W 051°37'1 1.6 27.4
2017-Jul-25 01:13N 27°11' W 051°37'0 0.0 27.4
2017-Jul-25 00:28N 27°11' W 051°37'1 4.0 27.4
2017-Jul-25 00:20N 27°11' W 051°37'0 0.0 27.4
2017-Jul-24 23:38N 27°11' W 051°37'0 0.0 27.4
2017-Jul-24 23:34N 27°11' W 051°37'0 0.0 27.4
2017-Jul-24 23:10N 27°11' W 051°37'0 0.0 27.4
2017-Jul-24 23:04N 27°11' W 051°37'1 1.5 27.4
2017-Jul-24 22:43N 27°11' W 051°37'116.0 27.5
2017-Jul-24 22:41N 27°11' W 051°37'0 0.0 27.6
2017-Jul-24 22:28N 27°11' W 051°37'0 0.0 27.6
2017-Jul-24 21:40N 27°11' W 051°37'1 3.0 27.6
2017-Jul-24 21:28N 27°11' W 051°37'0 0.0 27.6
2017-Jul-24 21:25N 27°11' W 051°37'0 0.0 27.6
2017-Jul-24 20:49N 27°11' W 051°37'1 0.6 27.6
2017-Jul-24 19:52N 27°12' W 051°37'1 5.3 27.7
2017-Jul-24 19:46N 27°12' W 051°38'0 0.0 27.7
2017-Jul-24 18:13N 27°12' W 051°38'0 0.0 27.7
2017-Jul-24 18:10N 27°12' W 051°38'0 0.0 27.7
2017-Jul-24 18:07N 27°12' W 051°38'1 0.8 27.7
2017-Jul-24 16:31N 27°13' W 051°39'0 0.0 27.7
2017-Jul-24 14:47N 27°13' W 051°39'0 0.0 27.5
2017-Jul-24 14:04N 27°13' W 051°39'1 5.3 27.4
2017-Jul-24 13:58N 27°13' W 051°40'0 0.0 27.4
2017-Jul-24 13:10N 27°13' W 051°40'1 0.7 27.3
2017-Jul-24 12:26N 27°13' W 051°39'0 0.0 27.2
2017-Jul-24 12:22N 27°13' W 051°39'0 0.0 27.2
2017-Jul-24 12:19N 27°13' W 051°39'0 0.0 27.2
2017-Jul-24 12:10N 27°13' W 051°39'0 0.0 27.2
2017-Jul-24 11:49N 27°13' W 051°39'0 0.0 27.2
2017-Jul-24 11:43N 27°13' W 051°39'116.0 27.1
2017-Jul-24 11:41N 27°13' W 051°38'1 2.5 27.1
2017-Jul-24 11:28N 27°13' W 051°39'0 0.0 27.0
2017-Jul-24 10:37N 27°13' W 051°39'0 0.0 26.9
2017-Jul-24 10:10N 27°13' W 051°39'0 0.0 26.9
2017-Jul-24 10:05N 27°13' W 051°39'0 0.0 26.9
2017-Jul-24 09:58N 27°13' W 051°39'0 0.0
2017-Jul-24 08:55N 27°13' W 051°39'0 0.0 26.8
2017-Jul-24 08:28N 27°13' W 051°39'1 5.3 26.7
2017-Jul-24 08:22N 27°13' W 051°38'0 0.0 26.7
2017-Jul-24 06:53N 27°13' W 051°38'112.2 27.3
2017-Jul-24 06:47N 27°13' W 051°40'2 0.4 27.3
2017-Jul-24 02:23N 27°14' W 051°38'0 0.0 27.5
2017-Jul-24 01:40N 27°14' W 051°38'0 0.0 27.6
2017-Jul-24 01:35N 27°14' W 051°38'0 0.0 27.6
2017-Jul-24 00:43N 27°14' W 051°38'118.0 27.8
2017-Jul-24 00:41N 27°15' W 051°38'0 0.0 27.8
2017-Jul-23 23:58N 27°15' W 051°38'110.7 27.9
2017-Jul-23 23:55N 27°15' W 051°38'1 0.9 27.9
2017-Jul-23 23:20N 27°15' W 051°38'1 4.6 28.2
2017-Jul-23 23:13N 27°15' W 051°38'1 5.3 28.2
2017-Jul-23 23:07N 27°15' W 051°38'0 0.0 28.2
2017-Jul-23 22:58N 27°15' W 051°38'1 6.4 28.4
2017-Jul-23 22:53N 27°15' W 051°38'1 0.8 28.4
2017-Jul-23 22:05N 27°16' W 051°38'0 0.0 28.5
2017-Jul-23 21:41N 27°16' W 051°38'0 0.0 28.5
2017-Jul-23 21:35N 27°16' W 051°38'1 3.2 28.5
2017-Jul-23 21:20N 27°16' W 051°38'1 0.6 28.6
2017-Jul-23 20:04N 27°17' W 051°38'1 0.5 29.1
2017-Jul-23 18:26N 27°17' W 051°38'0 0.0 29.4
2017-Jul-23 18:20N 27°17' W 051°38'2 1.1 29.4
2017-Jul-23 16:43N 27°19' W 051°38'1 0.8 29.3
2017-Jul-23 15:10N 27°20' W 051°40'0 0.0 28.8
2017-Jul-23 14:25N 27°20' W 051°40'0 0.0 28.4
2017-Jul-23 14:22N 27°20' W 051°40'1 0.6 28.4
2017-Jul-23 13:32N 27°20' W 051°40'1 8.0 28.2
2017-Jul-23 13:28N 27°20' W 051°41'0 0.0
2017-Jul-23 12:40N 27°20' W 051°41'124.1 27.8
2017-Jul-23 12:38N 27°20' W 051°41'0 0.0 27.6
2017-Jul-23 11:58N 27°20' W 051°41'116.0 27.4
2017-Jul-23 11:56N 27°20' W 051°41'0 0.0 27.2
2017-Jul-23 11:52N 27°20' W 051°41'0 0.0 27.2
2017-Jul-23 11:47N 27°20' W 051°41'112.0 27.2
2017-Jul-23 11:43N 27°20' W 051°41'0 0.0
2017-Jul-23 10:58N 27°20' W 051°41'0 0.0 26.9
2017-Jul-23 10:38N 27°20' W 051°41'1 2.0 26.9
2017-Jul-23 10:22N 27°20' W 051°42'0 0.0 26.9
2017-Jul-23 10:13N 27°20' W 051°42'0 0.0 26.9
2017-Jul-23 10:10N 27°20' W 051°42'0 0.0 26.9
2017-Jul-23 09:22N 27°20' W 051°42'0 0.0 26.9
2017-Jul-23 09:16N 27°20' W 051°42'0 0.0 26.9
2017-Jul-23 08:58N 27°20' W 051°42'0 0.0 26.9
2017-Jul-23 08:55N 27°20' W 051°42'0 0.0 26.9
2017-Jul-23 08:44N 27°20' W 051°42'0 0.0 26.9
2017-Jul-23 08:41N 27°20' W 051°42'1 8.0 26.9
2017-Jul-23 08:37N 27°20' W 051°43'0 0.0 26.9
2017-Jul-23 07:19N 27°20' W 051°43'0 0.0 26.9
2017-Jul-23 07:07N 27°20' W 051°43'0 0.0 26.9
2017-Jul-23 06:58N 27°20' W 051°43'118.0 26.9
2017-Jul-23 06:56N 27°19' W 051°43'1 0.8 26.9
2017-Jul-23 05:20N 27°20' W 051°43'0 0.0 27.0
2017-Jul-23 01:58N 27°20' W 051°43'112.0 27.3
2017-Jul-23 01:55N 27°21' W 051°43'0 0.0 27.3
2017-Jul-23 01:08N 27°21' W 051°43'0 0.0 27.4
2017-Jul-23 01:02N 27°21' W 051°43'0 0.0 27.4
2017-Jul-23 00:23N 27°21' W 051°43'1 6.0 27.4
2017-Jul-23 00:17N 27°22' W 051°43'1 9.0 27.4
2017-Jul-23 00:13N 27°21' W 051°43'1 0.8 27.4
2017-Jul-22 23:28N 27°22' W 051°43'0 0.0 27.3
2017-Jul-22 23:26N 27°22' W 051°43'1 8.0 27.4
2017-Jul-22 23:22N 27°22' W 051°44'0 0.0 27.4
2017-Jul-22 22:28N 27°22' W 051°44'0 0.0 27.3
2017-Jul-22 21:53N 27°22' W 051°44'0 0.0 27.4
2017-Jul-22 21:52N 27°22' W 051°44'1 3.6 27.4
2017-Jul-22 21:43N 27°22' W 051°43'1 0.7 27.5
2017-Jul-22 20:55N 27°22' W 051°44'0 0.0 27.6
2017-Jul-22 20:50N 27°22' W 051°44'0 0.0 27.6
2017-Jul-22 20:13N 27°22' W 051°44'219.3 27.8
2017-Jul-22 20:08N 27°23' W 051°43'296.3 27.8
2017-Jul-22 20:07N 27°22' W 051°44'2 1.1 27.8
2017-Jul-22 18:37N 27°23' W 051°43'0 0.0 28.1
2017-Jul-22 18:34N 27°23' W 051°43'1 8.0 28.1
2017-Jul-22 18:28N 27°22' W 051°43'1 0.8 27.9
2017-Jul-22 16:55N 27°23' W 051°44'1 0.4 28.0
2017-Jul-22 14:41N 27°24' W 051°44'1 0.7 27.4
2017-Jul-22 13:53N 27°24' W 051°45'1 0.8 27.2
2017-Jul-22 13:08N 27°25' W 051°45'1 6.4 27.1
2017-Jul-22 12:58N 27°25' W 051°46'1 0.7 27.1
2017-Jul-22 12:11N 27°25' W 051°46'0 0.0 26.9
2017-Jul-22 12:08N 27°25' W 051°46'0 0.0 26.9
2017-Jul-22 11:25N 27°25' W 051°46'1 1.9 26.9
2017-Jul-22 11:08N 27°25' W 051°46'0 0.0 26.9
2017-Jul-22 10:32N 27°25' W 051°46'0 0.0 26.9
2017-Jul-22 10:29N 27°25' W 051°46'1 0.8 26.9
2017-Jul-22 09:46N 27°25' W 051°46'1 4.0 26.9
2017-Jul-22 09:38N 27°25' W 051°47'1 3.6 26.9
2017-Jul-22 09:28N 27°25' W 051°47'124.1
2017-Jul-22 09:26N 27°25' W 051°46'1 1.0 26.9
2017-Jul-22 08:53N 27°25' W 051°47'0 0.0 26.9
2017-Jul-22 07:52N 27°25' W 051°47'1 0.8 27.1
2017-Jul-22 07:13N 27°25' W 051°47'0 0.0
2017-Jul-22 07:11N 27°25' W 051°47'1 0.8 27.2
2017-Jul-22 05:35N 27°26' W 051°49'0 0.0 27.3
2017-Jul-22 05:32N 27°26' W 051°49'2 0.5 27.3
2017-Jul-22 02:19N 27°25' W 051°50'0 0.0 27.5
2017-Jul-22 01:29N 27°25' W 051°50'1 5.3 27.6
2017-Jul-22 01:23N 27°25' W 051°51'0 0.0 27.6
2017-Jul-22 00:43N 27°25' W 051°51'0 0.0
2017-Jul-22 00:41N 27°25' W 051°51'0 0.0 27.6
2017-Jul-22 00:37N 27°25' W 051°51'1 0.7 27.6
2017-Jul-21 23:50N 27°25' W 051°50'0 0.0 27.7
2017-Jul-21 23:43N 27°25' W 051°50'0 0.0 27.8
2017-Jul-21 23:40N 27°25' W 051°50'1 0.9 27.8
2017-Jul-21 22:58N 27°25' W 051°50'1 1.3 27.9
2017-Jul-21 22:22N 27°25' W 051°51'1 1.3 28.1
2017-Jul-21 21:58N 27°25' W 051°52'1 1.1 28.3
2017-Jul-21 21:25N 27°25' W 051°52'1 5.3 28.5
2017-Jul-21 21:16N 27°25' W 051°51'1 1.1 28.6
2017-Jul-21 20:43N 27°25' W 051°51'1 4.4 28.7
2017-Jul-21 20:32N 27°25' W 051°52'0 0.0 28.7
2017-Jul-21 20:26N 27°25' W 051°52'1 8.0 28.8
2017-Jul-21 20:22N 27°25' W 051°51'0 0.0 28.8
2017-Jul-21 19:43N 27°25' W 051°51'0 0.0 28.7
2017-Jul-21 18:49N 27°25' W 051°51'0 0.0 28.7
2017-Jul-21 18:46N 27°25' W 051°51'1 0.5 28.7
2017-Jul-21 17:07N 27°26' W 051°50'1 0.6 28.2
2017-Jul-21 15:05N 27°26' W 051°52'0 0.0 27.2
2017-Jul-21 14:13N 27°26' W 051°52'0 0.0 27.2
2017-Jul-21 14:08N 27°26' W 051°52'1 0.8 27.2
2017-Jul-21 13:28N 27°26' W 051°52'0 0.0 27.0
2017-Jul-21 13:25N 27°26' W 051°52'1 1.1 27.0
2017-Jul-21 12:28N 27°26' W 051°53'1 5.3 26.6
2017-Jul-21 12:22N 27°26' W 051°53'1 1.9 26.6
2017-Jul-21 11:49N 27°26' W 051°54'0 0.0 26.5
2017-Jul-21 10:46N 27°26' W 051°54'0 0.0 26.4
2017-Jul-21 10:40N 27°26' W 051°54'0 0.0 26.4
2017-Jul-21 10:11N 27°26' W 051°54'0 0.0 26.4
2017-Jul-21 10:07N 27°26' W 051°54'0 0.0 26.4
2017-Jul-21 10:01N 27°26' W 051°54'0 0.0 26.4
2017-Jul-21 09:55N 27°26' W 051°54'0 0.0 26.4
2017-Jul-21 09:05N 27°26' W 051°54'0 0.0 26.4
2017-Jul-21 08:58N 27°26' W 051°54'0 0.0 26.4
2017-Jul-21 08:25N 27°26' W 051°54'0 0.0 26.4
2017-Jul-21 08:23N 27°26' W 051°54'1 6.9 26.4
2017-Jul-21 08:16N 27°26' W 051°55'1 0.7 26.4
2017-Jul-21 07:25N 27°26' W 051°55'116.0 26.4
2017-Jul-21 07:22N 27°26' W 051°54'234.1 26.4
2017-Jul-21 07:19N 27°26' W 051°56'0 0.0 26.4
2017-Jul-21 05:46N 27°26' W 051°56'112.0 26.4
2017-Jul-21 05:43N 27°27' W 051°56'2 0.4 26.4
2017-Jul-21 01:50N 27°26' W 051°57'1 4.6 26.4
2017-Jul-21 01:43N 27°26' W 051°58'0 0.0 26.4
2017-Jul-21 01:05N 27°26' W 051°58'1 4.6 26.4
2017-Jul-21 00:58N 27°26' W 051°58'0 0.0 26.4
2017-Jul-21 00:11N 27°26' W 051°58'0 0.0 26.5
2017-Jul-21 00:07N 27°26' W 051°58'1 6.0 26.5
2017-Jul-21 00:01N 27°25' W 051°58'0 0.0 26.5
2017-Jul-20 23:53N 27°25' W 051°58'1 1.3 26.5
2017-Jul-20 23:25N 27°26' W 051°58'112.0 26.5
2017-Jul-20 23:22N 27°25' W 051°58'0 0.0 26.5
2017-Jul-20 22:53N 27°25' W 051°58'0 0.0 26.5
2017-Jul-20 22:47N 27°25' W 051°58'2 3.0 26.5
2017-Jul-20 22:13N 27°25' W 052°00'0 0.0
2017-Jul-20 22:11N 27°25' W 052°00'121.3 26.6
2017-Jul-20 22:08N 27°25' W 051°59'1 1.8 26.6
2017-Jul-20 21:50N 27°25' W 051°58'1 0.9 26.6
2017-Jul-20 21:13N 27°25' W 051°59'1 1.1 26.6
2017-Jul-20 20:28N 27°24' W 051°59'0 0.0
2017-Jul-20 20:08N 27°24' W 051°59'1 0.5 26.6
2017-Jul-20 18:58N 27°24' W 051°59'0 0.0 26.7
2017-Jul-20 18:53N 27°24' W 051°59'1 0.5 26.7
2017-Jul-20 17:19N 27°23' W 051°59'1 0.2 26.6
2017-Jul-20 14:31N 27°23' W 051°59'0 0.0 26.4
2017-Jul-20 13:49N 27°23' W 051°59'0 0.0 26.4
2017-Jul-20 13:43N 27°23' W 051°59'1 0.7 26.3
2017-Jul-20 12:56N 27°23' W 051°59'0 0.0 26.3
2017-Jul-20 12:53N 27°23' W 051°59'1 4.6 26.3
2017-Jul-20 12:46N 27°23' W 051°59'0 0.0 26.3
2017-Jul-20 12:35N 27°23' W 051°59'1 1.2 26.2
2017-Jul-20 12:08N 27°23' W 051°59'112.0 26.2
2017-Jul-20 12:04N 27°23' W 051°59'1 8.0 26.2
2017-Jul-20 11:58N 27°23' W 052°00'0 0.0 26.2
2017-Jul-20 10:58N 27°23' W 052°00'0 0.0 26.2
2017-Jul-20 10:53N 27°23' W 052°00'0 0.0 26.2
2017-Jul-20 10:50N 27°23' W 052°00'0 0.0 26.2
2017-Jul-20 10:46N 27°23' W 052°00'0 0.0 26.2
2017-Jul-20 10:37N 27°23' W 052°00'0 0.0 26.2
2017-Jul-20 10:32N 27°23' W 052°00'1 9.0 26.2
2017-Jul-20 10:28N 27°22' W 052°00'1 0.5 26.2
2017-Jul-20 09:16N 27°23' W 052°00'110.7 26.2
2017-Jul-20 09:13N 27°23' W 051°59'0 0.0 26.2
2017-Jul-20 09:10N 27°23' W 051°59'110.7 26.2
2017-Jul-20 09:07N 27°23' W 052°00'0 0.0 26.2
2017-Jul-20 08:56N 27°23' W 052°00'0 0.0 26.2
2017-Jul-20 08:50N 27°23' W 052°00'0 0.0 26.2
2017-Jul-20 08:47N 27°23' W 052°00'0 0.0 26.2
2017-Jul-20 07:37N 27°23' W 052°00'0 0.0 26.2
2017-Jul-20 07:32N 27°23' W 052°00'1 2.5 26.2
2017-Jul-20 07:13N 27°22' W 052°01'0 0.0 26.2
2017-Jul-20 05:55N 27°22' W 052°01'1 0.4 26.2
2017-Jul-20 02:10N 27°21' W 052°01'0 0.0 26.2
2017-Jul-20 02:04N 27°21' W 052°01'0 0.0 26.2
2017-Jul-20 01:23N 27°21' W 052°01'0 0.0 26.2
2017-Jul-20 01:19N 27°21' W 052°01'0 0.0 26.2
2017-Jul-20 00:31N 27°21' W 052°01'1 6.0 26.2
2017-Jul-20 00:25N 27°20' W 052°01'0 0.0 26.2
2017-Jul-20 00:05N 27°20' W 052°01'0 0.0 26.2
2017-Jul-19 23:43N 27°20' W 052°01'1 7.2
2017-Jul-19 23:38N 27°21' W 052°01'0 0.0 26.2
2017-Jul-19 23:19N 27°21' W 052°01'1 0.9 26.3
2017-Jul-19 22:28N 27°20' W 052°02'0 0.0 26.3
2017-Jul-19 22:23N 27°20' W 052°02'0 0.0 26.3
2017-Jul-19 22:20N 27°20' W 052°02'0 0.0 26.3
2017-Jul-19 22:13N 27°20' W 052°02'0 0.0 26.3
2017-Jul-19 22:05N 27°20' W 052°02'1 1.7 26.3
2017-Jul-19 21:46N 27°20' W 052°02'1 1.3 26.4
2017-Jul-19 20:46N 27°19' W 052°02'0 0.0 26.4
2017-Jul-19 20:31N 27°19' W 052°02'0 0.0 26.4
2017-Jul-19 20:02N 27°19' W 052°02'1 0.9 26.4
2017-Jul-19 19:10N 27°19' W 052°02'0 0.0 26.4
2017-Jul-19 19:04N 27°19' W 052°02'1 0.8 26.4
2017-Jul-19 17:31N 27°17' W 052°03'2 0.6 26.4
2017-Jul-19 14:53N 27°16' W 052°02'148.2 26.3
2017-Jul-19 14:52N 27°16' W 052°01'0 0.0 26.3
2017-Jul-19 14:08N 27°16' W 052°01'1 6.0 26.2
2017-Jul-19 14:02N 27°15' W 052°01'0 0.0 26.2
2017-Jul-19 13:13N 27°15' W 052°01'1 1.2 26.2
2017-Jul-19 12:46N 27°15' W 052°01'0 0.0 26.2
2017-Jul-19 12:40N 27°15' W 052°01'0 0.0 26.2
2017-Jul-19 12:29N 27°15' W 052°01'1 6.9 26.2
2017-Jul-19 12:22N 27°14' W 052°00'0 0.0 26.2
2017-Jul-19 11:31N 27°14' W 052°00'1 7.2 26.2
2017-Jul-19 11:26N 27°15' W 052°00'0 0.0
2017-Jul-19 11:08N 27°15' W 052°00'0 0.0 26.2
2017-Jul-19 11:04N 27°15' W 052°00'0 0.0 26.2
2017-Jul-19 11:01N 27°15' W 052°00'0 0.0 26.2
2017-Jul-19 10:58N 27°15' W 052°00'1 0.4 26.2
2017-Jul-19 09:20N 27°14' W 052°00'1 0.4 26.2
2017-Jul-19 07:49N 27°14' W 051°59'1 6.0 26.2
2017-Jul-19 07:41N 27°14' W 051°59'0 0.0 26.2
2017-Jul-19 06:07N 27°14' W 051°59'1 0.2 26.2
2017-Jul-19 02:25N 27°13' W 051°59'0 0.0 26.3
2017-Jul-19 01:43N 27°13' W 051°59'0 0.0 26.3
2017-Jul-19 01:37N 27°13' W 051°59'0 0.0 26.3
2017-Jul-19 00:50N 27°13' W 051°59'0 0.0 26.3
2017-Jul-19 00:43N 27°13' W 051°59'0 0.0 26.4
2017-Jul-18 23:56N 27°13' W 051°59'0 0.0 26.4
2017-Jul-18 23:50N 27°13' W 051°59'0 0.0 26.4
2017-Jul-18 23:10N 27°13' W 051°59'1 7.2 26.4
2017-Jul-18 23:05N 27°13' W 051°59'0 0.0 26.4
2017-Jul-18 22:38N 27°13' W 051°59'0 0.0 26.4
2017-Jul-18 22:37N 27°13' W 051°59'0 0.0 26.4
2017-Jul-18 22:32N 27°13' W 051°59'0 0.0 26.4
2017-Jul-18 22:13N 27°13' W 051°59'1 0.5 26.5
2017-Jul-18 20:58N 27°12' W 051°59'0 0.0 26.5
2017-Jul-18 20:35N 27°12' W 051°59'1 0.5 26.5
2017-Jul-18 19:20N 27°11' W 051°59'0 0.0 26.6
2017-Jul-18 19:16N 27°11' W 051°59'1 0.8 26.6
2017-Jul-18 17:41N 27°10' W 051°59'0 0.0 26.6
2017-Jul-18 17:38N 27°10' W 051°59'224.1 26.6
2017-Jul-18 17:32N 27°08' W 051°58'0 0.0 26.6
2017-Jul-18 15:11N 27°08' W 051°58'0 0.0 26.4
2017-Jul-18 14:28N 27°08' W 051°58'0 0.0 26.4
2017-Jul-18 14:25N 27°08' W 051°58'1 0.9 26.4
2017-Jul-18 13:34N 27°09' W 051°57'0 0.0 26.4
2017-Jul-18 12:53N 27°09' W 051°57'148.2
2017-Jul-18 12:52N 27°08' W 051°56'0 0.0 26.4
2017-Jul-18 12:44N 27°08' W 051°56'0 0.0 26.4
2017-Jul-18 11:52N 27°08' W 051°56'1 9.6 26.3
2017-Jul-18 11:47N 27°08' W 051°56'0 0.0 26.3
2017-Jul-18 11:23N 27°08' W 051°56'1 3.2 26.3
2017-Jul-18 11:13N 27°08' W 051°55'0 0.0 26.3
2017-Jul-18 09:56N 27°08' W 051°55'1 5.3 26.3
2017-Jul-18 09:50N 27°08' W 051°55'1 8.0 26.3
2017-Jul-18 09:46N 27°08' W 051°55'0 0.0 26.3
2017-Jul-18 09:40N 27°08' W 051°55'0 0.0 26.3
2017-Jul-18 09:35N 27°08' W 051°55'1 8.0 26.3
2017-Jul-18 09:29N 27°07' W 051°55'0 0.0 26.3
2017-Jul-18 08:13N 27°07' W 051°55'0 0.0 26.3
2017-Jul-18 07:58N 27°07' W 051°55'112.8 26.3
2017-Jul-18 07:53N 27°07' W 051°53'0 0.0 26.3
2017-Jul-18 06:23N 27°07' W 051°53'1 5.3 26.3
2017-Jul-18 06:17N 27°07' W 051°54'2 0.4 26.3
2017-Jul-18 02:01N 27°07' W 051°52'0 0.0 26.4
2017-Jul-18 01:56N 27°07' W 051°52'1 0.7 26.4
2017-Jul-18 01:11N 27°07' W 051°52'1 4.6 26.4
2017-Jul-18 01:04N 27°07' W 051°52'0 0.0 26.4
2017-Jul-18 00:26N 27°07' W 051°52'0 0.0 26.4
2017-Jul-18 00:19N 27°07' W 051°52'0 0.0 26.4
2017-Jul-17 23:32N 27°07' W 051°52'1 1.1 26.4
2017-Jul-17 22:58N 27°07' W 051°52'0 0.0 26.5
2017-Jul-17 22:52N 27°07' W 051°52'0 0.0 26.5
2017-Jul-17 22:47N 27°07' W 051°52'0 0.0 26.5
2017-Jul-17 22:40N 27°07' W 051°52'0 0.0 26.5
2017-Jul-17 21:23N 27°07' W 051°52'0 0.0 26.5
2017-Jul-17 21:10N 27°07' W 051°52'0 0.0 26.5
2017-Jul-17 21:07N 27°07' W 051°52'1 3.3 26.5
2017-Jul-17 20:56N 27°06' W 051°52'0 0.0 26.5
2017-Jul-17 19:43N 27°06' W 051°52'0 0.0 26.6
2017-Jul-17 19:28N 27°06' W 051°52'118.0 26.6
2017-Jul-17 19:26N 27°05' W 051°52'0 0.0 26.6
2017-Jul-17 17:53N 27°05' W 051°52'220.7 26.6
2017-Jul-17 17:46N 27°04' W 051°50'0 0.0 26.6
2017-Jul-17 14:47N 27°04' W 051°50'0 0.0 26.4
2017-Jul-17 13:55N 27°04' W 051°50'1 1.9 26.4
2017-Jul-17 13:13N 27°02' W 051°50'0 0.0 26.3
2017-Jul-17 13:05N 27°02' W 051°50'0 0.0 26.3
2017-Jul-17 12:10N 27°02' W 051°50'110.7 26.3
2017-Jul-17 12:07N 27°02' W 051°49'0 0.0 26.3
2017-Jul-17 11:47N 27°02' W 051°49'0 0.0 26.2
2017-Jul-17 11:29N 27°02' W 051°49'1 0.8 26.2
2017-Jul-17 10:28N 27°02' W 051°49'0 0.0 26.2
2017-Jul-17 10:25N 27°02' W 051°49'1 6.4 26.2
2017-Jul-17 10:20N 27°02' W 051°48'0 0.0 26.2
2017-Jul-17 10:01N 27°02' W 051°48'0 0.0 26.2
2017-Jul-17 09:49N 27°02' W 051°48'0 0.0 26.2
2017-Jul-17 09:46N 27°02' W 051°48'1 7.2 26.2
2017-Jul-17 09:41N 27°01' W 051°48'0 0.0 26.2
2017-Jul-17 08:49N 27°01' W 051°48'0 0.0 26.2
2017-Jul-17 08:44N 27°01' W 051°48'110.7 26.2
2017-Jul-17 08:41N 27°01' W 051°47'0 0.0 26.2
2017-Jul-17 08:13N 27°01' W 051°47'1 0.7 26.2
2017-Jul-17 06:35N 27°01' W 051°46'0 0.0 26.2
2017-Jul-17 06:28N 27°01' W 051°46'3 0.7 26.2
2017-Jul-17 01:32N 27°01' W 051°43'1 5.3 26.4
2017-Jul-17 01:26N 27°01' W 051°42'0 0.0 26.4
2017-Jul-16 23:53N 27°01' W 051°42'1 3.6 26.4
2017-Jul-16 23:43N 27°02' W 051°42'0 0.0
2017-Jul-16 23:13N 27°02' W 051°42'1 2.4 26.4
2017-Jul-16 22:58N 27°01' W 051°42'116.0 26.4
2017-Jul-16 22:56N 27°01' W 051°41'0 0.0 26.4
2017-Jul-16 21:49N 27°01' W 051°41'0 0.0 26.4
2017-Jul-16 21:38N 27°01' W 051°41'0 0.0 26.4
2017-Jul-16 21:20N 27°01' W 051°41'0 0.0 26.4
2017-Jul-16 21:13N 27°01' W 051°41'1 0.4 26.4
2017-Jul-16 19:43N 27°01' W 051°41'0 0.0 26.4
2017-Jul-16 19:38N 27°01' W 051°41'0 0.0 26.4
2017-Jul-16 18:05N 27°01' W 051°41'1 5.1 26.5
2017-Jul-16 17:58N 27°01' W 051°41'1 0.3 26.5
2017-Jul-16 14:13N 27°00' W 051°40'124.1 26.3
2017-Jul-16 14:11N 26°59' W 051°39'0 0.0 26.2
2017-Jul-16 12:35N 26°59' W 051°39'0 0.0 26.1
2017-Jul-16 11:41N 26°59' W 051°39'1 6.0 26.1
2017-Jul-16 11:35N 27°00' W 051°39'1 0.8 26.1
2017-Jul-16 10:56N 27°00' W 051°38'1 1.9 26.1
2017-Jul-16 10:37N 26°59' W 051°38'0 0.0 26.1
2017-Jul-16 10:34N 26°59' W 051°38'1 0.8 26.1
2017-Jul-16 09:53N 26°59' W 051°38'132.1 26.1
2017-Jul-16 09:52N 26°59' W 051°37'0 0.0 26.1
2017-Jul-16 09:20N 26°59' W 051°37'1 5.1 26.1
2017-Jul-16 09:13N 26°59' W 051°37'1 2.0 26.1
2017-Jul-16 08:55N 26°59' W 051°37'1 1.2 26.1
2017-Jul-16 08:25N 26°59' W 051°37'0 0.0 26.1
2017-Jul-16 08:17N 26°59' W 051°37'0 0.0 26.1
2017-Jul-16 07:38N 26°59' W 051°37'1 0.9 26.1
2017-Jul-16 06:46N 26°58' W 051°37'1 7.2 26.1
2017-Jul-16 06:41N 26°59' W 051°37'3 0.6 26.1
2017-Jul-16 01:53N 26°58' W 051°34'112.3 26.2
2017-Jul-16 01:47N 26°58' W 051°32'0 0.0 26.2
2017-Jul-16 00:13N 26°58' W 051°32'0 0.0 26.2
2017-Jul-16 00:11N 26°58' W 051°32'110.7 26.2
2017-Jul-16 00:05N 26°58' W 051°31'0 0.0 26.2
2017-Jul-15 23:44N 26°58' W 051°31'0 0.0 26.2
2017-Jul-15 23:13N 26°58' W 051°31'0 0.0 26.2
2017-Jul-15 23:08N 26°58' W 051°31'0 0.0 26.2
2017-Jul-15 22:13N 26°58' W 051°31'0 0.0 26.3
2017-Jul-15 22:10N 26°58' W 051°31'0 0.0 26.3
2017-Jul-15 22:07N 26°58' W 051°31'0 0.0 26.3
2017-Jul-15 21:32N 26°58' W 051°31'1 4.6 26.3
2017-Jul-15 21:25N 26°58' W 051°31'0 0.0 26.3
2017-Jul-15 20:28N 26°58' W 051°31'1 1.8 26.4
2017-Jul-15 19:53N 26°58' W 051°29'112.1 26.4
2017-Jul-15 19:49N 26°58' W 051°29'0 0.0 26.4
2017-Jul-15 18:13N 26°58' W 051°29'112.0 26.4
2017-Jul-15 18:10N 26°58' W 051°29'1 0.3 26.4
2017-Jul-15 14:38N 26°58' W 051°28'1 8.0 26.2
2017-Jul-15 14:34N 26°58' W 051°27'0 0.0 26.2
2017-Jul-15 12:58N 26°58' W 051°27'0 0.0 26.1
2017-Jul-15 12:56N 26°58' W 051°27'1 8.0 26.1
2017-Jul-15 12:50N 26°59' W 051°26'0 0.0 26.1
2017-Jul-15 11:52N 26°59' W 051°26'0 0.0 26.1
2017-Jul-15 11:49N 26°59' W 051°26'1 0.7 26.1
2017-Jul-15 10:58N 26°58' W 051°26'1 1.1 26.1
2017-Jul-15 10:13N 26°59' W 051°26'0 0.0 26.1
2017-Jul-15 10:08N 26°59' W 051°26'   26.1

Dump ship's entire track history